Time;durP1;ratioP1;P1;durP2;ratioP2;P2;SDS_P1;SDS_P2;PMS_P1;PMS_P2;Temp;Humidity;BMP_temperature;BMP_pressure;BME280_temperature;BME280_humidity;BME280_pressure;Samples;Min_cycle;Max_cycle;Signal;HPM_P1;HPM_P2
2023/01/20 00:01:18;;;;;;;0.00;0.00;;;;;;;15.28;49.82;94169.00;4988286;28;20449;-62
2023/01/20 00:03:46;;;;;;;0.00;0.00;;;;;;;15.07;51.06;94168.69;4987621;28;20472;-61
2023/01/20 00:06:15;;;;;;;0.00;0.00;;;;;;;15.10;51.02;94178.69;4988500;28;20488;-63
2023/01/20 00:08:42;;;;;;;2.00;1.37;;;;;;;15.42;50.41;94208.56;4987381;28;20564;-62
2023/01/20 00:11:11;;;;;;;0.27;0.27;;;;;;;15.22;50.38;94200.00;4989094;28;20478;-62
2023/01/20 00:13:38;;;;;;;0.00;0.00;;;;;;;15.35;50.25;94192.31;4986775;28;20445;-62
2023/01/20 00:16:08;;;;;;;0.00;0.00;;;;;;;15.31;50.29;94194.78;4988543;28;20449;-62
2023/01/20 00:18:36;;;;;;;0.00;0.00;;;;;;;15.39;50.23;94217.03;4987958;28;20449;-61
2023/01/20 00:21:20;;;;;;;0.30;0.27;;;;;;;15.23;51.27;94201.59;4988871;28;20457;-62
2023/01/20 00:23:48;;;;;;;0.00;0.00;;;;;;;15.23;51.05;94156.72;4987579;28;20474;-61
2023/01/20 00:26:18;;;;;;;0.10;0.10;;;;;;;14.90;51.51;94049.91;4981216;28;20461;-61
2023/01/20 00:28:46;;;;;;;0.77;0.43;;;;;;;14.17;52.86;94031.84;4984451;28;20576;-63
2023/01/20 00:31:15;;;;;;;0.20;0.20;;;;;;;14.34;52.00;94025.19;4974065;28;20885;-61
2023/01/20 00:33:43;;;;;;;0.00;0.00;;;;;;;14.47;52.11;94043.56;4986564;28;20449;-62
2023/01/20 00:36:12;;;;;;;0.00;0.00;;;;;;;13.82;52.94;94050.25;4988270;28;21011;-62
2023/01/20 00:38:39;;;;;;;0.33;0.30;;;;;;;14.30;52.62;94027.63;4988106;28;20461;-62
2023/01/20 00:41:06;;;;;;;0.00;0.00;;;;;;;14.42;51.83;94017.31;4984921;28;20870;-63
2023/01/20 00:43:34;;;;;;;0.10;0.10;;;;;;;14.20;52.36;94020.72;4991688;28;20462;-62
2023/01/20 00:46:01;;;;;;;1.00;0.97;;;;;;;14.54;51.64;94008.88;4992279;28;20564;-62
2023/01/20 00:48:28;;;;;;;0.00;0.00;;;;;;;14.68;51.58;93999.81;4991900;28;20469;-62
2023/01/20 00:50:55;;;;;;;0.00;0.00;;;;;;;14.75;51.36;94002.81;4990892;28;20964;-62
2023/01/20 00:53:22;;;;;;;0.00;0.00;;;;;;;14.60;51.41;94016.34;4991747;28;20842;-63
2023/01/20 00:55:49;;;;;;;0.00;0.00;;;;;;;14.66;51.11;94007.25;4991083;28;20450;-63
2023/01/20 00:58:16;;;;;;;0.00;0.00;;;;;;;14.46;51.36;94012.22;4991996;28;20958;-62
2023/01/20 01:00:46;;;;;;;0.10;0.10;;;;;;;14.57;52.04;94018.81;4992001;28;20449;-63
2023/01/20 01:03:13;;;;;;;0.30;0.30;;;;;;;14.58;51.53;94021.16;4991736;28;20458;-62
2023/01/20 01:05:40;;;;;;;0.00;0.00;;;;;;;14.37;52.45;94020.09;4992076;28;20453;-62
2023/01/20 01:08:07;;;;;;;0.53;0.53;;;;;;;14.73;51.89;94002.31;4991782;28;20583;-62
2023/01/20 01:10:34;;;;;;;0.43;0.43;;;;;;;14.59;51.05;94001.63;4991684;28;20445;-61
2023/01/20 01:13:03;;;;;;;0.00;0.00;;;;;;;13.95;52.35;93992.31;4991935;28;20468;-62
2023/01/20 01:15:29;;;;;;;0.10;0.10;;;;;;;13.63;53.13;94005.63;4991923;28;20450;-64
2023/01/20 01:17:57;;;;;;;0.00;0.00;;;;;;;13.61;53.57;94001.75;4992087;28;20503;-63
2023/01/20 01:20:26;;;;;;;0.00;0.00;;;;;;;13.80;53.63;93995.28;4991088;28;20457;-64
2023/01/20 01:22:53;;;;;;;0.00;0.00;;;;;;;13.67;53.58;93976.84;4991131;28;20888;-62
2023/01/20 01:25:20;;;;;;;0.00;0.00;;;;;;;13.71;53.38;94004.16;4991047;28;20444;-61
2023/01/20 01:27:47;;;;;;;0.00;0.00;;;;;;;13.47;54.02;94000.97;4991341;28;20840;-63
2023/01/20 01:30:13;;;;;;;0.00;0.00;;;;;;;13.52;54.17;93993.00;4990051;28;20461;-61
2023/01/20 01:32:40;;;;;;;0.10;0.10;;;;;;;13.46;54.06;93981.00;4990944;28;20481;-63
2023/01/20 01:35:07;;;;;;;0.00;0.00;;;;;;;13.74;53.37;93969.34;4989287;28;20499;-60
2023/01/20 01:37:34;;;;;;;0.10;0.10;;;;;;;13.69;53.16;93972.88;4991025;28;20465;-62
2023/01/20 01:40:01;;;;;;;0.00;0.00;;;;;;;13.99;52.25;93971.41;4990173;28;20467;-63
2023/01/20 01:42:28;;;;;;;0.00;0.00;;;;;;;14.28;52.04;93963.91;4991183;28;20481;-64
2023/01/20 01:45:10;;;;;;;0.00;0.00;;;;;;;14.01;51.99;93970.03;4990875;28;20448;-62
2023/01/20 01:47:49;;;;;;;0.00;0.00;;;;;;;13.87;52.63;93966.66;4990743;28;20971;-62
2023/01/20 01:50:21;;;;;;;0.00;0.00;;;;;;;14.06;51.75;93982.31;4991612;28;20449;-62
2023/01/20 01:52:51;;;;;;;0.07;0.07;;;;;;;13.91;51.79;93990.56;4988825;28;20458;-64
2023/01/20 01:55:21;;;;;;;0.07;0.07;;;;;;;14.07;51.06;93989.13;4990635;28;20981;-65
2023/01/20 01:57:50;;;;;;;0.00;0.00;;;;;;;14.07;51.07;93992.53;4989967;28;21138;-62
2023/01/20 02:00:18;;;;;;;0.00;0.00;;;;;;;14.20;50.64;93989.09;4990719;28;20450;-63
2023/01/20 02:02:44;;;;;;;0.00;0.00;;;;;;;13.80;50.85;93981.31;4977987;28;20551;-63
2023/01/20 02:05:14;;;;;;;0.00;0.00;;;;;;;13.94;51.41;93989.97;4984836;28;20516;-64
2023/01/20 02:07:44;;;;;;;0.00;0.00;;;;;;;13.46;51.88;93999.44;4991047;28;20470;-64
2023/01/20 02:10:12;;;;;;;0.00;0.00;;;;;;;13.52;52.12;93993.00;4988871;28;20452;-64
2023/01/20 02:12:41;;;;;;;0.00;0.00;;;;;;;13.98;51.54;93986.44;4991123;28;20469;-62
2023/01/20 02:15:08;;;;;;;0.00;0.00;;;;;;;14.14;50.46;93963.94;4988880;28;20442;-64
2023/01/20 02:18:06;;;;;;;0.00;0.00;;;;;;;14.08;51.37;93961.72;4989626;28;20456;-64
2023/01/20 02:20:57;;;;;;;0.00;0.00;;;;;;;14.04;51.10;93943.13;4987140;28;20454;-62
2023/01/20 02:23:57;;;;;;;1.47;0.83;;;;;;;14.27;50.92;93957.06;4989483;28;20556;-64
2023/01/20 02:26:27;;;;;;;0.00;0.00;;;;;;;14.48;50.58;93958.16;4984740;28;20472;-64
2023/01/20 02:29:09;;;;;;;0.00;0.00;;;;;;;14.20;50.84;93946.16;4990167;28;20469;-65
2023/01/20 02:31:51;;;;;;;0.20;0.20;;;;;;;14.43;50.43;93941.69;4990045;28;20477;-64
2023/01/20 02:34:39;;;;;;;0.10;0.10;;;;;;;14.46;50.18;93939.22;4989513;28;20489;-63
2023/01/20 02:37:12;;;;;;;0.20;0.20;;;;;;;14.25;50.58;93938.13;4989556;28;21236;-64
2023/01/20 02:39:53;;;;;;;0.00;0.00;;;;;;;14.36;50.35;93928.16;4988944;28;20484;-64
2023/01/20 02:42:40;;;;;;;0.00;0.00;;;;;;;13.95;50.85;93923.84;4990009;28;20523;-65
2023/01/20 02:45:24;;;;;;;0.00;0.00;;;;;;;13.93;50.88;93914.66;4989085;28;20449;-64
2023/01/20 02:47:57;;;;;;;0.00;0.00;;;;;;;14.33;50.43;93907.66;4990353;28;20555;-65
2023/01/20 02:50:27;;;;;;;0.00;0.00;;;;;;;14.31;50.23;93910.59;4988763;28;20462;-64
2023/01/20 02:52:58;;;;;;;0.00;0.00;;;;;;;14.57;49.85;93903.63;4990224;28;20442;-64
2023/01/20 02:55:34;;;;;;;0.00;0.00;;;;;;;14.35;49.67;93901.00;4988121;28;20466;-65
2023/01/20 02:58:10;;;;;;;0.00;0.00;;;;;;;14.31;49.82;93910.59;4978426;28;20449;-64
2023/01/20 03:00:43;;;;;;;0.00;0.00;;;;;;;14.31;50.31;93894.78;4988108;28;20537;-65
2023/01/20 03:03:17;;;;;;;0.00;0.00;;;;;;;14.39;50.17;93899.34;4989249;28;20507;-65
2023/01/20 03:05:53;;;;;;;0.00;0.00;;;;;;;14.33;49.35;93897.91;4989142;28;20533;-64
2023/01/20 03:08:25;;;;;;;0.00;0.00;;;;;;;14.56;49.59;93912.59;4989567;28;20511;-64
2023/01/20 03:10:56;;;;;;;0.00;0.00;;;;;;;14.35;50.09;93908.13;4989495;28;20449;-64
2023/01/20 03:13:35;;;;;;;0.10;0.10;;;;;;;14.44;49.72;93904.47;4988668;28;20458;-65
2023/01/20 03:16:09;;;;;;;0.97;0.77;;;;;;;14.69;49.05;93906.44;4985242;28;20448;-65
2023/01/20 03:18:37;;;;;;;0.00;0.00;;;;;;;14.42;49.57;93898.72;4988678;28;20454;-65
2023/01/20 03:21:08;;;;;;;0.07;0.07;;;;;;;14.57;49.82;93902.81;4983824;28;20512;-64
2023/01/20 03:23:39;;;;;;;0.43;0.43;;;;;;;14.57;49.96;93908.09;4988935;28;20440;-65
2023/01/20 03:26:11;;;;;;;0.00;0.00;;;;;;;14.46;49.71;93904.94;4986164;28;20460;-64
2023/01/20 03:28:40;;;;;;;0.00;0.00;;;;;;;14.35;49.62;93906.28;4989448;28;20473;-65
2023/01/20 03:31:51;;;;;;;0.00;0.00;;;;;;;13.92;51.64;93913.88;4985312;28;20465;-65
2023/01/20 03:34:21;;;;;;;0.00;0.00;;;;;;;14.06;51.31;93914.63;4982124;28;20454;-65
2023/01/20 03:36:49;;;;;;;0.00;0.00;;;;;;;14.55;50.07;93908.41;4989297;28;20536;-65
2023/01/20 03:39:17;;;;;;;0.13;0.13;;;;;;;14.49;50.32;93906.97;4989111;28;20458;-66
2023/01/20 03:42:01;;;;;;;0.73;0.60;;;;;;;14.67;50.03;93908.59;4986432;28;20496;-63
2023/01/20 03:44:31;;;;;;;0.00;0.00;;;;;;;14.71;50.19;93909.56;4984362;28;20457;-63
2023/01/20 03:47:19;;;;;;;0.30;0.23;;;;;;;14.67;49.99;93913.88;4989438;28;20452;-65
2023/01/20 03:49:54;;;;;;;0.00;0.00;;;;;;;14.46;51.09;93918.13;4988251;28;20481;-63
2023/01/20 03:52:33;;;;;;;0.00;0.00;;;;;;;14.45;51.42;93906.00;4988463;28;20460;-62
2023/01/20 03:55:17;;;;;;;0.00;0.00;;;;;;;14.34;51.17;93899.47;4987688;28;20446;-62
2023/01/20 03:58:07;;;;;;;0.00;0.00;;;;;;;14.44;51.21;93864.16;4988291;28;20831;-63
2023/01/20 04:00:38;;;;;;;0.00;0.00;;;;;;;14.58;50.94;93881.44;4983782;28;20441;-61
2023/01/20 04:03:10;;;;;;;0.00;0.00;;;;;;;14.64;50.77;93879.44;4989512;28;20450;-62
2023/01/20 04:05:38;;;;;;;0.00;0.00;;;;;;;14.45;52.17;93874.38;4987484;28;20552;-63
2023/01/20 04:08:08;;;;;;;0.00;0.00;;;;;;;14.64;51.11;93864.41;4988948;28;20520;-61
2023/01/20 04:10:39;;;;;;;0.40;0.40;;;;;;;14.57;51.54;93856.16;4988218;28;20545;-61
2023/01/20 04:13:06;;;;;;;0.00;0.00;;;;;;;14.81;50.65;93867.09;4987719;28;20477;-62
2023/01/20 04:15:37;;;;;;;0.43;0.23;;;;;;;14.69;51.60;93861.63;4986629;28;20457;-63
2023/01/20 04:18:18;;;;;;;0.47;0.20;;;;;;;14.64;52.18;93861.75;4988622;28;20458;-64
2023/01/20 04:20:55;;;;;;;0.30;0.30;;;;;;;14.41;51.62;93856.88;4986748;28;20921;-61
2023/01/20 04:23:33;;;;;;;0.00;0.00;;;;;;;14.60;51.92;93845.00;4989006;28;20801;-63
2023/01/20 04:26:00;;;;;;;0.00;0.00;;;;;;;14.43;52.58;93836.25;4987619;28;20878;-63
2023/01/20 04:28:27;;;;;;;0.00;0.00;;;;;;;14.37;52.43;93824.28;4987762;28;20922;-61
2023/01/20 04:30:53;;;;;;;0.00;0.00;;;;;;;14.39;51.99;93822.91;4987407;28;20572;-63
2023/01/20 04:33:20;;;;;;;0.10;0.10;;;;;;;14.02;53.64;93828.59;4987984;28;20866;-62
2023/01/20 04:35:47;;;;;;;0.00;0.00;;;;;;;14.23;52.39;93837.53;4987227;28;20969;-61
2023/01/20 04:38:14;;;;;;;0.00;0.00;;;;;;;14.39;52.19;93833.47;4988703;28;20457;-62
2023/01/20 04:40:41;;;;;;;0.00;0.00;;;;;;;14.61;51.26;93825.47;4987470;28;20875;-63
2023/01/20 04:43:09;;;;;;;0.10;0.10;;;;;;;14.40;51.80;93816.56;4988683;28;20540;-63
2023/01/20 04:45:36;;;;;;;0.00;0.00;;;;;;;14.62;50.74;93831.50;4986066;28;20477;-65
2023/01/20 04:48:07;;;;;;;0.10;0.10;;;;;;;14.66;51.23;93827.97;4986178;28;20779;-65
2023/01/20 04:50:38;;;;;;;0.00;0.00;;;;;;;14.80;51.29;93828.63;4986163;28;20465;-63
2023/01/20 04:53:05;;;;;;;0.00;0.00;;;;;;;14.90;50.52;93833.63;4987764;28;20445;-63
2023/01/20 04:55:32;;;;;;;0.00;0.00;;;;;;;14.74;50.77;93829.88;4985879;28;20478;-65
2023/01/20 04:57:59;;;;;;;0.00;0.00;;;;;;;14.32;51.52;93829.69;4987700;28;20507;-62
2023/01/20 05:00:26;;;;;;;0.00;0.00;;;;;;;14.65;50.99;93836.94;4986462;28;20465;-63
2023/01/20 05:02:56;;;;;;;0.00;0.00;;;;;;;14.89;50.12;93816.22;4988939;28;20512;-64
2023/01/20 05:05:24;;;;;;;0.00;0.00;;;;;;;14.88;50.09;93838.41;4988380;28;20446;-62
2023/01/20 05:07:52;;;;;;;0.20;0.20;;;;;;;14.33;51.45;93850.47;4989145;28;20468;-63
2023/01/20 05:10:20;;;;;;;0.10;0.10;;;;;;;14.54;50.96;93862.06;4988292;28;20902;-63
2023/01/20 05:12:46;;;;;;;0.00;0.00;;;;;;;14.66;50.65;93867.50;4989115;28;20525;-63
2023/01/20 05:15:13;;;;;;;0.00;0.00;;;;;;;14.82;50.04;93858.09;4988478;28;20538;-64
2023/01/20 05:17:40;;;;;;;0.00;0.00;;;;;;;14.72;50.57;93865.53;4988778;28;21082;-63
2023/01/20 05:20:08;;;;;;;0.00;0.00;;;;;;;14.64;51.10;93850.44;4987987;28;20454;-64
2023/01/20 05:22:35;;;;;;;3.50;1.60;;;;;;;14.78;51.06;93846.59;4988864;28;21023;-62
2023/01/20 05:25:02;;;;;;;0.00;0.00;;;;;;;14.67;51.60;93860.38;4988030;28;20999;-61
2023/01/20 05:27:29;;;;;;;0.00;0.00;;;;;;;14.47;52.15;93856.41;4989741;28;20817;-62
2023/01/20 05:29:56;;;;;;;0.20;0.20;;;;;;;14.42;51.94;93853.13;4992048;28;20493;-64
2023/01/20 05:32:23;;;;;;;0.10;0.10;;;;;;;13.88;53.66;93875.28;4986920;28;20481;-63
2023/01/20 05:34:49;;;;;;;0.00;0.00;;;;;;;14.35;52.69;93879.94;4991775;28;20528;-65
2023/01/20 05:37:17;;;;;;;0.00;0.00;;;;;;;13.97;53.73;93889.28;4992267;28;20477;-63
2023/01/20 05:39:44;;;;;;;0.10;0.10;;;;;;;14.02;54.92;93897.06;4991290;28;20453;-63
2023/01/20 05:42:11;;;;;;;0.10;0.10;;;;;;;14.38;53.29;93884.59;4990870;28;20445;-62
2023/01/20 05:44:37;;;;;;;0.10;0.10;;;;;;;14.11;53.06;93890.00;4991311;28;20500;-62
2023/01/20 05:47:05;;;;;;;0.40;0.40;;;;;;;14.39;52.69;93911.72;4992148;28;20453;-61
2023/01/20 05:49:32;;;;;;;0.10;0.10;;;;;;;14.34;53.69;93904.75;4990360;28;20489;-63
2023/01/20 05:51:59;;;;;;;0.00;0.00;;;;;;;14.53;52.69;93892.13;4990559;28;20437;-62
2023/01/20 05:54:26;;;;;;;0.00;0.00;;;;;;;14.17;53.44;93883.53;4990242;28;20511;-61
2023/01/20 05:56:53;;;;;;;0.10;0.10;;;;;;;14.42;52.96;93890.81;4989848;28;20548;-63
2023/01/20 05:59:19;;;;;;;0.20;0.20;;;;;;;14.66;52.62;93869.38;4989939;28;20467;-61
2023/01/20 06:01:46;;;;;;;0.77;0.77;;;;;;;14.58;52.40;93857.69;4990186;28;20449;-62
2023/01/20 06:04:13;;;;;;;0.10;0.10;;;;;;;14.75;52.21;93868.31;4991056;28;20508;-62
2023/01/20 06:06:40;;;;;;;0.20;0.20;;;;;;;14.93;52.29;93864.66;4991653;28;20505;-63
2023/01/20 06:09:08;;;;;;;0.00;0.00;;;;;;;14.85;52.52;93870.66;4991678;28;20571;-65
2023/01/20 06:11:35;;;;;;;0.00;0.00;;;;;;;14.61;52.71;93886.13;4990682;28;20497;-62
2023/01/20 06:14:02;;;;;;;0.13;0.13;;;;;;;14.56;53.04;93896.75;4991196;28;20453;-63
2023/01/20 06:16:29;;;;;;;0.00;0.00;;;;;;;14.70;53.30;93886.13;4978099;28;20922;-62
2023/01/20 06:18:56;;;;;;;0.10;0.10;;;;;;;14.89;52.14;93889.31;4991665;28;21271;-65
2023/01/20 06:21:23;;;;;;;0.10;0.10;;;;;;;15.13;52.29;93894.94;4988265;28;20441;-64
2023/01/20 06:23:52;;;;;;;0.00;0.00;;;;;;;15.09;52.21;93886.88;4988618;28;20483;-63
2023/01/20 06:26:19;;;;;;;0.10;0.10;;;;;;;14.91;52.25;93893.19;4989068;28;20463;-65
2023/01/20 06:28:46;;;;;;;0.53;0.50;;;;;;;14.92;51.27;93904.53;4989064;28;20466;-62
2023/01/20 06:31:15;;;;;;;0.10;0.10;;;;;;;14.89;51.80;93905.91;4988628;28;20477;-63
2023/01/20 06:33:42;;;;;;;0.00;0.00;;;;;;;14.71;52.58;93914.81;4987764;28;20852;-63
2023/01/20 06:36:12;;;;;;;0.30;0.30;;;;;;;14.85;52.59;93893.66;4989901;28;20519;-64
2023/01/20 06:38:39;;;;;;;1.00;0.63;;;;;;;14.77;52.65;93887.25;4990654;28;20484;-64
2023/01/20 06:41:09;;;;;;;0.30;0.20;;;;;;;14.73;52.82;93886.31;4990380;28;20468;-63
2023/01/20 06:43:38;;;;;;;2.00;1.40;;;;;;;14.96;52.30;93873.81;4991144;28;20465;-63
2023/01/20 06:46:09;;;;;;;0.37;0.37;;;;;;;14.76;52.98;93851.41;4990557;28;20482;-66
2023/01/20 06:48:36;;;;;;;0.00;0.00;;;;;;;15.06;52.32;93842.66;4991145;28;20497;-63
2023/01/20 06:51:18;;;;;;;0.40;0.40;;;;;;;14.70;52.98;93855.28;4990334;28;20470;-62
2023/01/20 06:53:46;;;;;;;0.70;0.70;;;;;;;14.65;52.77;93863.31;4990797;28;20612;-62
2023/01/20 06:56:14;;;;;;;0.20;0.20;;;;;;;14.68;52.75;93857.44;4990492;28;20457;-63
2023/01/20 06:58:41;;;;;;;0.37;0.37;;;;;;;14.99;52.49;93842.31;4990829;28;20461;-66
2023/01/20 07:01:20;;;;;;;0.60;0.60;;;;;;;14.93;52.02;93848.81;4977285;28;20448;-62
2023/01/20 07:03:47;;;;;;;1.17;1.13;;;;;;;14.99;51.48;93858.16;4990669;28;20487;-63
2023/01/20 07:06:26;;;;;;;0.40;0.40;;;;;;;15.14;51.64;93856.94;4990072;28;20457;-63
2023/01/20 07:08:53;;;;;;;0.83;0.83;;;;;;;15.11;51.03;93845.13;4991032;28;20461;-64
2023/01/20 07:11:21;;;;;;;0.53;0.53;;;;;;;14.63;52.79;93849.69;4990079;28;20541;-62
2023/01/20 07:13:47;;;;;;;0.30;0.30;;;;;;;14.17;54.03;93868.50;4990118;28;20442;-63
2023/01/20 07:16:15;;;;;;;0.10;0.10;;;;;;;14.66;52.48;93864.09;4989686;28;20538;-63
2023/01/20 07:18:45;;;;;;;0.10;0.10;;;;;;;14.06;54.60;93853.25;4990715;28;20446;-62
2023/01/20 07:21:12;;;;;;;4.03;1.17;;;;;;;14.50;53.80;93844.50;4989938;28;20446;-64
2023/01/20 07:23:39;;;;;;;1.13;1.03;;;;;;;14.77;52.71;93845.06;4990631;28;20473;-64
2023/01/20 07:26:09;;;;;;;0.50;0.50;;;;;;;14.93;52.12;93848.81;4989823;28;21096;-62
2023/01/20 07:28:37;;;;;;;0.70;0.70;;;;;;;14.74;52.45;93853.59;4990226;28;20450;-63
2023/01/20 07:31:05;;;;;;;0.10;0.10;;;;;;;14.48;53.09;93873.81;4989777;28;20491;-64
2023/01/20 07:33:32;;;;;;;0.40;0.40;;;;;;;14.18;54.74;93864.00;4990595;28;20453;-62
2023/01/20 07:36:00;;;;;;;0.80;0.77;;;;;;;14.59;53.87;93847.94;4989354;28;20446;-64
2023/01/20 07:38:28;;;;;;;0.30;0.30;;;;;;;14.94;52.94;93850.38;4990270;28;20947;-65
2023/01/20 07:41:02;;;;;;;1.50;0.70;;;;;;;15.19;52.65;93846.22;4990402;28;20500;-64
2023/01/20 07:43:31;;;;;;;0.97;0.77;;;;;;;14.93;52.69;93859.38;4978634;28;20523;-64
2023/01/20 07:46:00;;;;;;;1.10;1.03;;;;;;;14.69;52.92;93852.97;4989703;28;20556;-63
2023/01/20 07:48:29;;;;;;;2.13;1.10;;;;;;;14.99;52.56;93852.88;4990261;28;20481;-62
2023/01/20 07:51:06;;;;;;;0.00;0.00;;;;;;;15.08;52.63;93848.41;4988866;28;20493;-63
2023/01/20 07:53:36;;;;;;;0.57;0.47;;;;;;;15.17;51.16;93843.91;4990281;28;20449;-64
2023/01/20 07:56:11;;;;;;;0.70;0.70;;;;;;;15.07;51.69;93854.75;4989339;28;20489;-63
2023/01/20 07:58:38;;;;;;;0.53;0.53;;;;;;;14.82;52.26;93854.69;4989731;28;20452;-64
2023/01/20 08:01:11;;;;;;;0.20;0.20;;;;;;;15.04;52.41;93860.63;4989072;28;20438;-64
2023/01/20 08:03:39;;;;;;;0.23;0.23;;;;;;;15.13;51.86;93858.00;4990480;28;20478;-64
2023/01/20 08:06:09;;;;;;;0.83;0.83;;;;;;;15.32;51.54;93852.44;4989363;28;20845;-62
2023/01/20 08:08:35;;;;;;;0.63;0.63;;;;;;;14.85;52.82;93849.56;4990279;28;20438;-63
2023/01/20 08:11:04;;;;;;;1.70;1.60;;;;;;;15.26;51.04;93857.09;4989426;28;20834;-62
2023/01/20 08:13:31;;;;;;;0.90;0.87;;;;;;;15.08;51.14;93837.84;4989173;28;20515;-62
2023/01/20 08:16:00;;;;;;;0.90;0.83;;;;;;;15.16;51.32;93820.47;4989049;28;20450;-63
2023/01/20 08:18:27;;;;;;;0.43;0.43;;;;;;;14.82;52.82;93792.16;4989833;28;20484;-62
2023/01/20 08:20:54;;;;;;;0.17;0.17;;;;;;;14.89;52.08;93787.22;4989001;28;20452;-63
2023/01/20 08:23:21;;;;;;;0.57;0.57;;;;;;;14.63;53.23;93783.78;4989680;28;20453;-65
2023/01/20 08:25:48;;;;;;;0.10;0.10;;;;;;;13.97;54.28;93778.69;4989108;28;20457;-63
2023/01/20 08:28:15;;;;;;;0.63;0.63;;;;;;;14.14;53.86;93805.13;4989692;28;20437;-64
2023/01/20 08:30:42;;;;;;;0.67;0.67;;;;;;;14.47;53.61;93803.69;4989056;28;20489;-64
2023/01/20 08:33:09;;;;;;;0.20;0.20;;;;;;;14.16;53.72;93802.94;4989586;28;20526;-64
2023/01/20 08:35:36;;;;;;;1.17;1.07;;;;;;;14.71;53.37;93801.44;4988994;28;20448;-63
2023/01/20 08:38:04;;;;;;;1.07;1.07;;;;;;;14.72;52.83;93779.28;4989270;28;20525;-63
2023/01/20 08:40:31;;;;;;;0.70;0.70;;;;;;;14.54;53.98;93788.25;4989235;28;20453;-63
2023/01/20 08:43:00;;;;;;;0.43;0.40;;;;;;;14.58;54.08;93773.34;4988226;28;20516;-63
2023/01/20 08:45:26;;;;;;;0.47;0.47;;;;;;;14.74;52.75;93750.75;4989137;28;20445;-64
2023/01/20 08:47:53;;;;;;;0.20;0.20;;;;;;;15.08;53.89;93766.59;4989481;28;20521;-64
2023/01/20 08:50:22;;;;;;;0.83;0.73;;;;;;;15.17;53.16;93762.09;4989476;28;20489;-63
2023/01/20 08:52:49;;;;;;;0.43;0.43;;;;;;;15.27;53.42;93762.88;4989034;28;20473;-64
2023/01/20 08:55:16;;;;;;;2.00;1.53;;;;;;;15.35;53.16;93765.50;4988574;28;20449;-63
2023/01/20 08:57:44;;;;;;;0.10;0.10;;;;;;;15.17;52.94;93754.19;4989217;28;20442;-63
2023/01/20 09:00:13;;;;;;;2.83;0.63;;;;;;;15.42;52.51;93750.00;4988869;28;20452;-64
2023/01/20 09:02:40;;;;;;;2.03;0.37;;;;;;;15.64;51.76;93763.00;4992347;28;20441;-64
2023/01/20 09:05:07;;;;;;;2.80;1.50;;;;;;;15.25;52.37;93761.31;4992328;28;20953;-64
2023/01/20 09:07:35;;;;;;;0.67;0.53;;;;;;;13.97;54.09;93768.16;4993260;28;20925;-65
2023/01/20 09:10:03;;;;;;;0.00;0.00;;;;;;;14.51;53.47;93756.44;4992494;28;20509;-61
2023/01/20 09:12:30;;;;;;;0.10;0.10;;;;;;;14.92;52.55;93757.59;4993045;28;20516;-63
2023/01/20 09:14:57;;;;;;;0.10;0.10;;;;;;;15.03;51.63;93747.53;4992408;28;20453;-64
2023/01/20 09:17:23;;;;;;;0.83;0.83;;;;;;;14.75;52.15;93754.94;4993591;28;20504;-65
2023/01/20 09:19:50;;;;;;;0.33;0.30;;;;;;;15.00;51.34;93764.72;4992709;28;20481;-65
2023/01/20 09:22:18;;;;;;;0.00;0.00;;;;;;;15.23;50.48;93763.50;4993082;28;20433;-64
2023/01/20 09:24:45;;;;;;;0.00;0.00;;;;;;;15.43;50.70;93771.91;4992141;28;21011;-62
2023/01/20 09:27:12;;;;;;;0.60;0.40;;;;;;;15.22;51.97;93759.31;4980111;28;20512;-65
2023/01/20 09:29:39;;;;;;;0.00;0.00;;;;;;;15.70;50.23;93753.84;4992383;28;20477;-64
2023/01/20 09:32:06;;;;;;;0.00;0.00;;;;;;;15.62;51.41;93764.44;4992517;28;20457;-64
2023/01/20 09:34:33;;;;;;;0.20;0.20;;;;;;;15.47;50.91;93754.34;4992458;28;20449;-64
2023/01/20 09:45:51;;;;;;;0.00;0.00;;;;;;;15.33;51.14;93724.69;4991995;28;20488;-65
2023/01/20 09:54:43;;;;;;;0.00;0.00;;;;;;;15.50;49.92;93724.69;4991809;28;20454;-64
2023/01/20 09:57:12;;;;;;;0.30;0.30;;;;;;;15.58;50.35;93716.75;4992276;28;20536;-64
2023/01/20 09:59:52;;;;;;;0.10;0.10;;;;;;;15.90;50.30;93702.22;4992315;28;20468;-64
2023/01/20 10:02:28;;;;;;;0.10;0.10;;;;;;;16.30;49.75;93690.22;4992186;28;20438;-63
2023/01/20 10:05:00;;;;;;;0.40;0.40;;;;;;;16.72;50.17;93685.78;4992183;28;20464;-64
2023/01/20 10:07:37;;;;;;;0.10;0.10;;;;;;;17.06;49.57;93688.19;4991431;28;20831;-64
2023/01/20 10:10:17;;;;;;;0.10;0.10;;;;;;;17.54;48.57;93696.31;4991487;28;20496;-64
2023/01/20 10:12:52;;;;;;;0.00;0.00;;;;;;;17.29;49.10;93688.59;4991662;28;20484;-64
2023/01/20 10:15:23;;;;;;;0.57;0.57;;;;;;;17.54;48.89;93679.63;4991078;28;20807;-64
2023/01/20 10:17:53;;;;;;;0.30;0.30;;;;;;;17.93;48.63;93652.56;4992081;28;20537;-66
2023/01/20 10:20:40;;;;;;;0.30;0.30;;;;;;;18.32;47.83;93641.28;4991323;28;20438;-64
2023/01/20 10:23:15;;;;;;;0.60;0.60;;;;;;;18.54;46.99;93638.19;4991842;28;20437;-64
2023/01/20 10:25:56;;;;;;;0.00;0.00;;;;;;;18.85;45.23;93635.66;4990823;28;20445;-65
2023/01/20 10:28:28;;;;;;;0.00;0.00;;;;;;;18.23;46.33;93647.81;4991607;28;20520;-64
2023/01/20 10:30:59;;;;;;;0.57;0.57;;;;;;;17.76;46.76;93650.88;4991339;28;20501;-64
2023/01/20 10:33:36;;;;;;;0.00;0.00;;;;;;;17.59;47.43;93650.31;4991691;28;20467;-65
2023/01/20 10:36:07;;;;;;;0.10;0.10;;;;;;;18.12;46.26;93650.91;4991416;28;20450;-64
2023/01/20 10:38:37;;;;;;;4.07;0.53;;;;;;;17.79;46.05;93670.66;4991433;28;21078;-63
2023/01/20 10:41:15;;;;;;;0.17;0.17;;;;;;;17.27;47.50;93654.50;4991382;28;20442;-65
2023/01/20 10:43:46;;;;;;;0.00;0.00;;;;;;;17.07;47.94;93656.09;4991495;28;20486;-64
2023/01/20 10:46:19;;;;;;;0.00;0.00;;;;;;;17.03;47.09;93657.81;4990820;28;20481;-64
2023/01/20 10:48:52;;;;;;;0.00;0.00;;;;;;;16.76;47.74;93649.66;4991483;28;20450;-64
2023/01/20 10:51:40;;;;;;;0.00;0.00;;;;;;;16.79;47.42;93656.94;4990782;28;20528;-65
2023/01/20 10:54:13;;;;;;;0.00;0.00;;;;;;;16.77;47.64;93667.09;4991109;28;20898;-64
2023/01/20 10:56:52;;;;;;;0.10;0.10;;;;;;;17.04;46.77;93667.31;4990751;28;20796;-64
2023/01/20 10:59:52;;;;;;;0.10;0.10;;;;;;;16.90;46.20;93666.81;4991438;28;20469;-66
2023/01/20 11:02:29;;;;;;;0.00;0.00;;;;;;;16.68;47.37;93651.25;4977730;28;20450;-64
2023/01/20 11:05:02;;;;;;;0.00;0.00;;;;;;;16.85;47.37;93627.31;4990851;28;20445;-64
2023/01/20 11:07:32;;;;;;;0.00;0.00;;;;;;;16.54;46.88;93634.88;4991143;28;20450;-64
2023/01/20 11:10:14;;;;;;;0.00;0.00;;;;;;;16.26;47.16;93641.72;4990198;28;20556;-66
2023/01/20 11:12:44;;;;;;;0.03;0.03;;;;;;;16.67;47.14;93644.44;4991436;28;20882;-67
2023/01/20 11:15:17;;;;;;;0.00;0.00;;;;;;;15.85;48.39;93663.56;4990679;28;20454;-65
2023/01/20 11:17:45;;;;;;;0.10;0.10;;;;;;;16.32;47.41;93661.59;4990570;28;20442;-64
2023/01/20 11:20:22;;;;;;;0.00;0.00;;;;;;;16.35;47.63;93666.22;4990193;28;20445;-68
2023/01/20 11:22:49;;;;;;;0.10;0.10;;;;;;;16.61;46.48;93653.66;4976380;28;20453;-65
2023/01/20 11:25:25;;;;;;;0.00;0.00;;;;;;;16.35;47.22;93639.03;4986485;28;20442;-65
2023/01/20 11:27:52;;;;;;;0.00;0.00;;;;;;;16.51;47.26;93654.03;4990676;28;20456;-64
2023/01/20 11:30:28;;;;;;;0.47;0.47;;;;;;;16.21;46.39;93655.91;4989491;28;20480;-64
2023/01/20 11:33:22;;;;;;;0.83;0.83;;;;;;;16.25;46.39;93658.69;4989976;28;20944;-64
2023/01/20 11:35:59;;;;;;;0.43;0.43;;;;;;;16.34;46.72;93659.41;4990028;28;20454;-64
2023/01/20 11:38:47;;;;;;;0.13;0.13;;;;;;;16.08;48.07;93664.03;5001593;28;20462;-64
2023/01/20 11:41:27;;;;;;;0.00;0.00;;;;;;;15.74;49.27;93654.44;4985212;28;20442;-65
2023/01/20 11:43:59;;;;;;;0.53;0.47;;;;;;;15.81;50.04;93664.47;4990032;28;20567;-64
2023/01/20 11:46:32;;;;;;;0.23;0.23;;;;;;;15.30;50.66;93661.97;4989532;28;20489;-64
2023/01/20 11:49:12;;;;;;;0.90;0.90;;;;;;;15.53;50.90;93672.03;4989918;28;20447;-64
2023/01/20 11:51:53;;;;;;;0.80;0.80;;;;;;;15.13;52.55;93668.81;4978304;28;20501;-64
2023/01/20 11:54:28;;;;;;;0.60;0.60;;;;;;;15.01;53.49;93665.28;4990183;28;20856;-64
2023/01/20 11:57:00;;;;;;;0.10;0.10;;;;;;;15.03;52.86;93673.66;4990349;28;20457;-63
2023/01/20 11:59:30;;;;;;;0.00;0.00;;;;;;;14.73;52.45;93680.63;4990276;28;20452;-62
2023/01/20 12:02:00;;;;;;;0.60;0.43;;;;;;;14.91;51.86;93676.91;4989718;28;20442;-62
2023/01/20 12:04:52;;;;;;;0.00;0.00;;;;;;;13.79;49.94;93682.28;4989953;28;21000;-65
2023/01/20 12:07:36;;;;;;;0.00;0.00;;;;;;;13.87;49.54;93684.94;4989743;28;20551;-63